sensor_id;sensor_type;location;lat;lon;timestamp;pressure;altitude;pressure_sealevel;temperature;humidity
57050;BME280;42935;50.966;16.992;2023-03-22T00:01:21;101330.31;;;7.57;100.00
57050;BME280;42935;50.966;16.992;2023-03-22T00:04:46;101316.93;;;7.52;100.00
57050;BME280;42935;50.966;16.992;2023-03-22T00:08:09;101319.43;;;7.52;100.00
57050;BME280;42935;50.966;16.992;2023-03-22T00:11:32;101307.30;;;7.34;100.00
57050;BME280;42935;50.966;16.992;2023-03-22T00:15:00;101315.14;;;7.32;100.00
57050;BME280;42935;50.966;16.992;2023-03-22T00:18:26;101315.99;;;7.27;100.00
57050;BME280;42935;50.966;16.992;2023-03-22T00:21:48;101311.05;;;7.32;100.00
57050;BME280;42935;50.966;16.992;2023-03-22T00:25:18;101302.09;;;7.24;100.00
57050;BME280;42935;50.966;16.992;2023-03-22T00:28:42;101285.30;;;7.37;100.00
57050;BME280;42935;50.966;16.992;2023-03-22T00:32:15;101288.81;;;7.35;100.00
57050;BME280;42935;50.966;16.992;2023-03-22T00:35:35;101291.38;;;7.31;100.00
57050;BME280;42935;50.966;16.992;2023-03-22T00:39:03;101288.05;;;7.45;100.00
57050;BME280;42935;50.966;16.992;2023-03-22T00:42:24;101288.59;;;7.46;100.00
57050;BME280;42935;50.966;16.992;2023-03-22T00:45:53;101281.43;;;7.41;100.00
57050;BME280;42935;50.966;16.992;2023-03-22T00:49:18;101272.98;;;7.36;100.00
57050;BME280;42935;50.966;16.992;2023-03-22T00:52:41;101263.34;;;7.35;100.00
57050;BME280;42935;50.966;16.992;2023-03-22T00:56:06;101261.14;;;7.27;100.00
57050;BME280;42935;50.966;16.992;2023-03-22T00:59:27;101252.84;;;7.25;100.00
57050;BME280;42935;50.966;16.992;2023-03-22T01:02:56;101261.80;;;7.21;100.00
57050;BME280;42935;50.966;16.992;2023-03-22T01:06:27;101244.13;;;7.18;100.00
57050;BME280;42935;50.966;16.992;2023-03-22T01:09:50;101256.48;;;7.29;100.00
57050;BME280;42935;50.966;16.992;2023-03-22T01:13:18;101248.34;;;7.29;100.00
57050;BME280;42935;50.966;16.992;2023-03-22T01:16:38;101250.55;;;7.33;100.00
57050;BME280;42935;50.966;16.992;2023-03-22T01:20:08;101255.22;;;7.40;100.00
57050;BME280;42935;50.966;16.992;2023-03-22T01:23:36;101236.29;;;7.47;100.00
57050;BME280;42935;50.966;16.992;2023-03-22T01:27:04;101243.90;;;7.48;100.00
57050;BME280;42935;50.966;16.992;2023-03-22T01:30:29;101226.56;;;7.34;100.00
57050;BME280;42935;50.966;16.992;2023-03-22T01:33:48;101229.16;;;7.46;100.00
57050;BME280;42935;50.966;16.992;2023-03-22T01:37:12;101207.00;;;7.29;100.00
57050;BME280;42935;50.966;16.992;2023-03-22T01:40:36;101225.85;;;7.38;100.00
57050;BME280;42935;50.966;16.992;2023-03-22T01:44:08;101210.50;;;7.42;100.00
57050;BME280;42935;50.966;16.992;2023-03-22T01:47:43;101210.39;;;7.47;100.00
57050;BME280;42935;50.966;16.992;2023-03-22T01:51:17;101214.82;;;7.42;100.00
57050;BME280;42935;50.966;16.992;2023-03-22T01:54:51;101212.70;;;7.34;100.00
57050;BME280;42935;50.966;16.992;2023-03-22T01:58:17;101199.87;;;7.33;100.00
57050;BME280;42935;50.966;16.992;2023-03-22T02:01:37;101205.95;;;7.55;100.00
57050;BME280;42935;50.966;16.992;2023-03-22T02:04:57;101194.43;;;7.68;100.00
57050;BME280;42935;50.966;16.992;2023-03-22T02:08:22;101204.23;;;7.57;100.00
57050;BME280;42935;50.966;16.992;2023-03-22T02:11:42;101192.45;;;7.55;100.00
57050;BME280;42935;50.966;16.992;2023-03-22T02:15:20;101200.80;;;7.42;100.00
57050;BME280;42935;50.966;16.992;2023-03-22T02:18:58;101201.53;;;7.53;100.00
57050;BME280;42935;50.966;16.992;2023-03-22T02:29:46;101192.25;;;7.62;100.00
57050;BME280;42935;50.966;16.992;2023-03-22T02:40:27;101191.38;;;7.54;100.00
57050;BME280;42935;50.966;16.992;2023-03-22T02:47:40;101189.80;;;7.56;100.00
57050;BME280;42935;50.966;16.992;2023-03-22T02:51:28;101182.59;;;7.66;100.00
57050;BME280;42935;50.966;16.992;2023-03-22T03:02:04;101190.03;;;7.52;100.00
57050;BME280;42935;50.966;16.992;2023-03-22T03:05:31;101192.72;;;7.65;100.00
57050;BME280;42935;50.966;16.992;2023-03-22T03:09:00;101184.50;;;7.60;100.00
57050;BME280;42935;50.966;16.992;2023-03-22T03:12:31;101194.27;;;7.45;100.00
57050;BME280;42935;50.966;16.992;2023-03-22T03:15:58;101178.18;;;7.37;100.00
57050;BME280;42935;50.966;16.992;2023-03-22T03:19:26;101187.48;;;7.51;100.00
57050;BME280;42935;50.966;16.992;2023-03-22T03:26:36;101203.05;;;7.56;100.00
57050;BME280;42935;50.966;16.992;2023-03-22T03:30:15;101211.15;;;7.65;100.00
57050;BME280;42935;50.966;16.992;2023-03-22T03:37:28;101209.57;;;7.90;100.00
57050;BME280;42935;50.966;16.992;2023-03-22T03:41:04;101214.06;;;8.09;100.00
57050;BME280;42935;50.966;16.992;2023-03-22T03:44:27;101197.48;;;7.90;100.00
57050;BME280;42935;50.966;16.992;2023-03-22T03:47:57;101223.26;;;7.97;100.00
57050;BME280;42935;50.966;16.992;2023-03-22T03:51:22;101236.87;;;7.98;100.00
57050;BME280;42935;50.966;16.992;2023-03-22T03:54:51;101241.20;;;7.95;100.00
57050;BME280;42935;50.966;16.992;2023-03-22T03:58:17;101239.98;;;7.73;100.00
57050;BME280;42935;50.966;16.992;2023-03-22T04:01:47;101227.90;;;7.73;100.00
57050;BME280;42935;50.966;16.992;2023-03-22T04:05:20;101231.98;;;7.78;100.00
57050;BME280;42935;50.966;16.992;2023-03-22T04:08:48;101241.91;;;7.99;100.00
57050;BME280;42935;50.966;16.992;2023-03-22T04:12:15;101242.68;;;8.05;100.00
57050;BME280;42935;50.966;16.992;2023-03-22T04:15:36;101237.83;;;8.02;100.00
57050;BME280;42935;50.966;16.992;2023-03-22T04:19:00;101232.85;;;7.86;100.00
57050;BME280;42935;50.966;16.992;2023-03-22T04:22:21;101215.61;;;7.28;100.00
57050;BME280;42935;50.966;16.992;2023-03-22T04:25:46;101220.05;;;7.53;100.00
57050;BME280;42935;50.966;16.992;2023-03-22T04:29:36;101221.02;;;7.57;100.00
57050;BME280;42935;50.966;16.992;2023-03-22T04:32:56;101220.41;;;7.63;100.00
57050;BME280;42935;50.966;16.992;2023-03-22T04:36:25;101202.27;;;7.46;100.00
57050;BME280;42935;50.966;16.992;2023-03-22T04:40:02;101226.53;;;7.19;100.00
57050;BME280;42935;50.966;16.992;2023-03-22T04:43:31;101219.46;;;7.39;100.00
57050;BME280;42935;50.966;16.992;2023-03-22T04:46:50;101212.48;;;7.21;100.00
57050;BME280;42935;50.966;16.992;2023-03-22T04:50:12;101215.48;;;7.37;100.00
57050;BME280;42935;50.966;16.992;2023-03-22T04:53:45;101208.86;;;7.12;100.00
57050;BME280;42935;50.966;16.992;2023-03-22T04:57:10;101201.48;;;6.98;100.00
57050;BME280;42935;50.966;16.992;2023-03-22T05:00:35;101196.77;;;7.02;100.00
57050;BME280;42935;50.966;16.992;2023-03-22T05:04:03;101196.48;;;7.03;100.00
57050;BME280;42935;50.966;16.992;2023-03-22T05:07:27;101170.10;;;6.93;100.00
57050;BME280;42935;50.966;16.992;2023-03-22T05:10:48;101188.38;;;6.97;100.00
57050;BME280;42935;50.966;16.992;2023-03-22T05:14:10;101197.60;;;6.90;100.00
57050;BME280;42935;50.966;16.992;2023-03-22T05:17:38;101202.02;;;6.93;100.00
57050;BME280;42935;50.966;16.992;2023-03-22T05:21:00;101199.64;;;7.04;100.00
57050;BME280;42935;50.966;16.992;2023-03-22T05:24:25;101204.64;;;7.00;100.00
57050;BME280;42935;50.966;16.992;2023-03-22T05:27:44;101196.91;;;7.10;100.00
57050;BME280;42935;50.966;16.992;2023-03-22T05:31:16;101206.55;;;7.21;100.00
57050;BME280;42935;50.966;16.992;2023-03-22T05:34:43;101207.15;;;7.04;100.00
57050;BME280;42935;50.966;16.992;2023-03-22T05:38:16;101212.03;;;7.03;100.00
57050;BME280;42935;50.966;16.992;2023-03-22T05:41:36;101217.44;;;7.17;100.00
57050;BME280;42935;50.966;16.992;2023-03-22T05:44:57;101205.40;;;7.23;100.00
57050;BME280;42935;50.966;16.992;2023-03-22T05:48:22;101200.59;;;7.06;100.00
57050;BME280;42935;50.966;16.992;2023-03-22T05:51:50;101209.11;;;7.36;100.00
57050;BME280;42935;50.966;16.992;2023-03-22T05:55:16;101205.93;;;7.48;100.00
57050;BME280;42935;50.966;16.992;2023-03-22T05:58:40;101217.03;;;7.66;100.00
57050;BME280;42935;50.966;16.992;2023-03-22T06:02:11;101205.80;;;7.60;100.00
57050;BME280;42935;50.966;16.992;2023-03-22T06:05:35;101213.92;;;7.75;100.00
57050;BME280;42935;50.966;16.992;2023-03-22T06:08:55;101191.69;;;7.61;100.00
57050;BME280;42935;50.966;16.992;2023-03-22T06:12:20;101214.28;;;7.76;100.00
57050;BME280;42935;50.966;16.992;2023-03-22T06:15:46;101218.95;;;7.87;100.00
57050;BME280;42935;50.966;16.992;2023-03-22T06:19:15;101212.80;;;8.10;100.00
57050;BME280;42935;50.966;16.992;2023-03-22T06:22:40;101198.32;;;8.16;100.00
57050;BME280;42935;50.966;16.992;2023-03-22T06:26:04;101207.70;;;8.28;100.00
57050;BME280;42935;50.966;16.992;2023-03-22T06:29:33;101206.45;;;8.23;100.00
57050;BME280;42935;50.966;16.992;2023-03-22T06:33:01;101205.98;;;8.24;100.00
57050;BME280;42935;50.966;16.992;2023-03-22T06:36:28;101199.58;;;8.32;100.00
57050;BME280;42935;50.966;16.992;2023-03-22T06:39:48;101188.87;;;8.59;100.00
57050;BME280;42935;50.966;16.992;2023-03-22T06:43:18;101208.72;;;9.00;100.00
57050;BME280;42935;50.966;16.992;2023-03-22T06:46:38;101212.77;;;9.08;100.00
57050;BME280;42935;50.966;16.992;2023-03-22T06:50:00;101217.68;;;9.09;100.00
57050;BME280;42935;50.966;16.992;2023-03-22T06:53:29;101210.66;;;9.25;100.00
57050;BME280;42935;50.966;16.992;2023-03-22T06:56:52;101217.51;;;9.37;100.00
57050;BME280;42935;50.966;16.992;2023-03-22T07:00:21;101220.97;;;9.63;100.00
57050;BME280;42935;50.966;16.992;2023-03-22T07:03:42;101211.48;;;9.67;100.00
57050;BME280;42935;50.966;16.992;2023-03-22T07:07:07;101212.55;;;9.85;100.00
57050;BME280;42935;50.966;16.992;2023-03-22T07:10:34;101221.13;;;10.05;100.00
57050;BME280;42935;50.966;16.992;2023-03-22T07:14:03;101206.22;;;10.12;100.00
57050;BME280;42935;50.966;16.992;2023-03-22T07:17:27;101219.05;;;10.18;100.00
57050;BME280;42935;50.966;16.992;2023-03-22T07:20:52;101219.97;;;10.12;100.00
57050;BME280;42935;50.966;16.992;2023-03-22T07:24:12;101210.95;;;10.17;100.00
57050;BME280;42935;50.966;16.992;2023-03-22T07:27:40;101206.28;;;10.35;100.00
57050;BME280;42935;50.966;16.992;2023-03-22T07:31:08;101213.73;;;10.59;100.00
57050;BME280;42935;50.966;16.992;2023-03-22T07:34:38;101201.08;;;10.65;100.00
57050;BME280;42935;50.966;16.992;2023-03-22T07:37:58;101194.66;;;10.83;100.00
57050;BME280;42935;50.966;16.992;2023-03-22T07:41:23;101202.38;;;10.89;100.00
57050;BME280;42935;50.966;16.992;2023-03-22T07:44:53;101200.54;;;11.03;100.00
57050;BME280;42935;50.966;16.992;2023-03-22T07:48:19;101181.50;;;11.10;100.00
57050;BME280;42935;50.966;16.992;2023-03-22T07:51:43;101176.80;;;11.22;100.00
57050;BME280;42935;50.966;16.992;2023-03-22T07:55:11;101196.04;;;11.41;100.00
57050;BME280;42935;50.966;16.992;2023-03-22T07:58:35;101177.35;;;11.38;100.00
57050;BME280;42935;50.966;16.992;2023-03-22T08:01:53;101189.95;;;11.63;100.00
57050;BME280;42935;50.966;16.992;2023-03-22T08:05:09;101173.84;;;11.68;100.00
57050;BME280;42935;50.966;16.992;2023-03-22T08:08:35;101184.90;;;11.78;100.00
57050;BME280;42935;50.966;16.992;2023-03-22T08:12:02;101180.87;;;11.89;100.00
57050;BME280;42935;50.966;16.992;2023-03-22T08:15:26;101171.45;;;12.04;100.00
57050;BME280;42935;50.966;16.992;2023-03-22T08:18:50;101169.95;;;12.01;100.00
57050;BME280;42935;50.966;16.992;2023-03-22T08:22:14;101168.00;;;12.08;100.00
57050;BME280;42935;50.966;16.992;2023-03-22T08:25:38;101171.02;;;12.20;100.00
57050;BME280;42935;50.966;16.992;2023-03-22T08:28:58;101181.14;;;12.38;100.00
57050;BME280;42935;50.966;16.992;2023-03-22T08:32:20;101184.51;;;12.43;100.00
57050;BME280;42935;50.966;16.992;2023-03-22T08:35:46;101174.45;;;12.51;100.00
57050;BME280;42935;50.966;16.992;2023-03-22T08:39:13;101170.73;;;12.32;100.00
57050;BME280;42935;50.966;16.992;2023-03-22T08:42:38;101178.05;;;12.60;100.00
57050;BME280;42935;50.966;16.992;2023-03-22T08:45:58;101179.35;;;12.85;100.00
57050;BME280;42935;50.966;16.992;2023-03-22T08:49:14;101162.88;;;13.01;100.00
57050;BME280;42935;50.966;16.992;2023-03-22T08:52:42;101171.27;;;13.26;100.00
57050;BME280;42935;50.966;16.992;2023-03-22T08:55:58;101160.95;;;13.35;100.00
57050;BME280;42935;50.966;16.992;2023-03-22T08:59:18;101167.09;;;13.30;99.79
57050;BME280;42935;50.966;16.992;2023-03-22T09:02:44;101168.41;;;13.00;100.00
57050;BME280;42935;50.966;16.992;2023-03-22T09:06:06;101163.99;;;13.26;100.00
57050;BME280;42935;50.966;16.992;2023-03-22T09:09:36;101158.25;;;12.81;98.32
57050;BME280;42935;50.966;16.992;2023-03-22T09:13:05;101156.80;;;12.76;98.66
57050;BME280;42935;50.966;16.992;2023-03-22T09:16:32;101153.76;;;13.21;99.68
57050;BME280;42935;50.966;16.992;2023-03-22T09:19:48;101147.56;;;13.13;97.28
57050;BME280;42935;50.966;16.992;2023-03-22T09:23:08;101150.99;;;13.28;92.42
57050;BME280;42935;50.966;16.992;2023-03-22T09:26:24;101145.02;;;13.39;94.86
57050;BME280;42935;50.966;16.992;2023-03-22T09:29:52;101147.26;;;13.31;90.53
57050;BME280;42935;50.966;16.992;2023-03-22T09:33:41;101145.59;;;13.39;89.75
57050;BME280;42935;50.966;16.992;2023-03-22T09:37:02;101139.95;;;13.52;89.05
57050;BME280;42935;50.966;16.992;2023-03-22T09:40:26;101141.70;;;13.72;87.01
57050;BME280;42935;50.966;16.992;2023-03-22T09:44:29;101135.98;;;13.94;87.36
57050;BME280;42935;50.966;16.992;2023-03-22T09:47:53;101115.23;;;13.56;85.00
57050;BME280;42935;50.966;16.992;2023-03-22T09:54:47;101106.84;;;14.36;84.88
57050;BME280;42935;50.966;16.992;2023-03-22T09:58:20;101133.38;;;14.19;79.94
57050;BME280;42935;50.966;16.992;2023-03-22T10:01:55;101129.60;;;14.03;81.13
57050;BME280;42935;50.966;16.992;2023-03-22T10:05:32;101115.97;;;14.28;79.22
57050;BME280;42935;50.966;16.992;2023-03-22T10:12:47;101122.68;;;14.23;81.46
57050;BME280;42935;50.966;16.992;2023-03-22T10:16:17;101116.95;;;13.85;84.35
57050;BME280;42935;50.966;16.992;2023-03-22T10:26:58;101107.41;;;14.49;83.76
57050;BME280;42935;50.966;16.992;2023-03-22T10:30:26;101107.87;;;14.58;83.12
57050;BME280;42935;50.966;16.992;2023-03-22T10:37:22;101098.92;;;14.61;80.53
57050;BME280;42935;50.966;16.992;2023-03-22T10:40:51;101106.83;;;15.21;79.43
57050;BME280;42935;50.966;16.992;2023-03-22T10:44:19;101095.84;;;15.58;78.57
57050;BME280;42935;50.966;16.992;2023-03-22T10:47:43;101105.52;;;15.46;77.39
57050;BME280;42935;50.966;16.992;2023-03-22T10:51:02;101106.21;;;15.29;81.27
57050;BME280;42935;50.966;16.992;2023-03-22T10:54:23;101094.61;;;15.51;78.97
57050;BME280;42935;50.966;16.992;2023-03-22T10:57:58;101081.73;;;15.53;79.08
57050;BME280;42935;50.966;16.992;2023-03-22T11:04:58;101083.12;;;16.16;78.65
57050;BME280;42935;50.966;16.992;2023-03-22T11:08:20;101090.28;;;16.35;76.19
57050;BME280;42935;50.966;16.992;2023-03-22T11:11:52;101083.85;;;16.86;81.71
57050;BME280;42935;50.966;16.992;2023-03-22T11:15:23;101072.96;;;16.19;74.78
57050;BME280;42935;50.966;16.992;2023-03-22T11:18:48;101074.66;;;16.49;75.66
57050;BME280;42935;50.966;16.992;2023-03-22T11:22:42;101073.27;;;16.52;74.60
57050;BME280;42935;50.966;16.992;2023-03-22T11:26:12;101059.32;;;17.23;78.09
57050;BME280;42935;50.966;16.992;2023-03-22T11:29:41;101011.98;;;17.21;75.94
57050;BME280;42935;50.966;16.992;2023-03-22T11:36:42;101044.51;;;16.59;70.72
57050;BME280;42935;50.966;16.992;2023-03-22T11:40:05;101031.88;;;16.89;76.17
57050;BME280;42935;50.966;16.992;2023-03-22T11:43:37;101030.90;;;17.20;72.65
57050;BME280;42935;50.966;16.992;2023-03-22T11:47:07;101013.67;;;17.47;72.73
57050;BME280;42935;50.966;16.992;2023-03-22T11:50:30;101023.20;;;17.46;71.69
57050;BME280;42935;50.966;16.992;2023-03-22T11:57:54;101011.41;;;17.23;66.43
57050;BME280;42935;50.966;16.992;2023-03-22T12:01:59;100993.83;;;16.92;64.52
57050;BME280;42935;50.966;16.992;2023-03-22T12:05:25;101000.63;;;16.74;63.52
57050;BME280;42935;50.966;16.992;2023-03-22T12:08:57;100985.59;;;16.82;63.95
57050;BME280;42935;50.966;16.992;2023-03-22T12:12:21;100994.09;;;17.07;63.73
57050;BME280;42935;50.966;16.992;2023-03-22T12:15:49;100984.27;;;16.92;64.06
57050;BME280;42935;50.966;16.992;2023-03-22T12:22:54;100992.41;;;17.10;61.41
57050;BME280;42935;50.966;16.992;2023-03-22T12:26:20;100976.13;;;16.90;60.89
57050;BME280;42935;50.966;16.992;2023-03-22T12:30:02;100982.60;;;17.27;62.02
57050;BME280;42935;50.966;16.992;2023-03-22T12:33:31;100930.51;;;16.64;59.73
57050;BME280;42935;50.966;16.992;2023-03-22T12:36:54;100969.71;;;16.88;59.19
57050;BME280;42935;50.966;16.992;2023-03-22T12:40:28;100980.37;;;17.11;60.91
57050;BME280;42935;50.966;16.992;2023-03-22T12:43:57;100965.87;;;17.76;61.32
57050;BME280;42935;50.966;16.992;2023-03-22T12:47:26;100964.69;;;18.15;57.89
57050;BME280;42935;50.966;16.992;2023-03-22T12:50:55;100959.89;;;18.23;57.68
57050;BME280;42935;50.966;16.992;2023-03-22T12:54:24;100941.02;;;18.36;57.67
57050;BME280;42935;50.966;16.992;2023-03-22T12:57:46;100954.05;;;18.17;57.79
57050;BME280;42935;50.966;16.992;2023-03-22T13:01:22;100951.91;;;17.82;58.93
57050;BME280;42935;50.966;16.992;2023-03-22T13:04:49;100937.77;;;17.92;58.92
57050;BME280;42935;50.966;16.992;2023-03-22T13:08:11;100943.45;;;17.91;59.33
57050;BME280;42935;50.966;16.992;2023-03-22T13:11:32;100939.78;;;18.18;60.60
57050;BME280;42935;50.966;16.992;2023-03-22T13:15:03;100925.65;;;18.21;61.07
57050;BME280;42935;50.966;16.992;2023-03-22T13:25:34;100918.45;;;18.55;61.06
57050;BME280;42935;50.966;16.992;2023-03-22T13:29:00;100919.72;;;18.30;60.36
57050;BME280;42935;50.966;16.992;2023-03-22T13:32:30;100912.64;;;18.49;60.64
57050;BME280;42935;50.966;16.992;2023-03-22T13:39:32;100917.66;;;18.42;59.74
57050;BME280;42935;50.966;16.992;2023-03-22T13:50:03;100893.30;;;18.53;60.72
57050;BME280;42935;50.966;16.992;2023-03-22T13:53:30;100854.26;;;18.30;60.21
57050;BME280;42935;50.966;16.992;2023-03-22T13:56:58;100885.17;;;18.58;59.70
57050;BME280;42935;50.966;16.992;2023-03-22T14:00:40;100872.64;;;17.93;59.66
57050;BME280;42935;50.966;16.992;2023-03-22T14:04:30;100892.32;;;17.74;61.10
57050;BME280;42935;50.966;16.992;2023-03-22T14:07:58;100884.02;;;17.78;62.10
57050;BME280;42935;50.966;16.992;2023-03-22T14:11:32;100876.96;;;17.43;62.32
57050;BME280;42935;50.966;16.992;2023-03-22T14:14:47;100890.74;;;17.75;58.70
57050;BME280;42935;50.966;16.992;2023-03-22T14:21:43;100887.00;;;17.25;59.59
57050;BME280;42935;50.966;16.992;2023-03-22T14:25:07;100894.98;;;17.10;61.56
57050;BME280;42935;50.966;16.992;2023-03-22T14:32:00;100877.17;;;17.12;64.66
57050;BME280;42935;50.966;16.992;2023-03-22T14:35:36;100880.84;;;17.13;63.72
57050;BME280;42935;50.966;16.992;2023-03-22T14:38:53;100859.52;;;17.46;58.77
57050;BME280;42935;50.966;16.992;2023-03-22T14:42:26;100863.93;;;18.01;59.44
57050;BME280;42935;50.966;16.992;2023-03-22T14:46:00;100875.80;;;17.43;62.34
57050;BME280;42935;50.966;16.992;2023-03-22T14:49:16;100880.05;;;17.15;61.18
57050;BME280;42935;50.966;16.992;2023-03-22T14:52:35;100879.65;;;16.92;61.70
57050;BME280;42935;50.966;16.992;2023-03-22T14:55:57;100868.73;;;17.11;61.38
57050;BME280;42935;50.966;16.992;2023-03-22T14:59:20;100871.89;;;17.00;61.89
57050;BME280;42935;50.966;16.992;2023-03-22T15:02:46;100863.34;;;17.16;62.66
57050;BME280;42935;50.966;16.992;2023-03-22T15:06:45;100853.32;;;17.51;61.16
57050;BME280;42935;50.966;16.992;2023-03-22T15:10:36;100844.83;;;17.79;60.82
57050;BME280;42935;50.966;16.992;2023-03-22T15:14:29;100837.99;;;18.02;59.00
57050;BME280;42935;50.966;16.992;2023-03-22T15:17:53;100852.38;;;18.39;57.16
57050;BME280;42935;50.966;16.992;2023-03-22T15:21:13;100829.78;;;17.59;57.82
57050;BME280;42935;50.966;16.992;2023-03-22T15:25:10;100835.14;;;17.51;59.02
57050;BME280;42935;50.966;16.992;2023-03-22T15:28:38;100838.08;;;17.94;57.51
57050;BME280;42935;50.966;16.992;2023-03-22T15:32:04;100836.09;;;18.28;57.41
57050;BME280;42935;50.966;16.992;2023-03-22T15:35:30;100826.76;;;18.25;55.61
57050;BME280;42935;50.966;16.992;2023-03-22T15:42:49;100832.95;;;17.87;56.03
57050;BME280;42935;50.966;16.992;2023-03-22T15:46:18;100819.63;;;17.67;56.20
57050;BME280;42935;50.966;16.992;2023-03-22T15:49:45;100827.45;;;17.75;55.66
57050;BME280;42935;50.966;16.992;2023-03-22T15:53:22;100821.05;;;17.70;56.11
57050;BME280;42935;50.966;16.992;2023-03-22T15:56:39;100827.77;;;17.40;56.29
57050;BME280;42935;50.966;16.992;2023-03-22T16:00:05;100831.76;;;17.08;57.21
57050;BME280;42935;50.966;16.992;2023-03-22T16:03:39;100827.28;;;16.74;58.78
57050;BME280;42935;50.966;16.992;2023-03-22T16:07:01;100828.26;;;16.36;60.66
57050;BME280;42935;50.966;16.992;2023-03-22T16:10:19;100829.30;;;16.05;61.61
57050;BME280;42935;50.966;16.992;2023-03-22T16:13:42;100816.23;;;15.72;63.43
57050;BME280;42935;50.966;16.992;2023-03-22T16:17:32;100816.07;;;15.66;63.30
57050;BME280;42935;50.966;16.992;2023-03-22T16:20:50;100775.78;;;15.57;63.70
57050;BME280;42935;50.966;16.992;2023-03-22T16:24:13;100814.44;;;15.51;64.74
57050;BME280;42935;50.966;16.992;2023-03-22T16:27:34;100817.48;;;15.38;65.25
57050;BME280;42935;50.966;16.992;2023-03-22T16:31:03;100817.80;;;15.22;66.85
57050;BME280;42935;50.966;16.992;2023-03-22T16:34:31;100825.73;;;15.01;68.38
57050;BME280;42935;50.966;16.992;2023-03-22T16:37:48;100828.53;;;14.89;69.20
57050;BME280;42935;50.966;16.992;2023-03-22T16:41:10;100825.49;;;14.72;69.30
57050;BME280;42935;50.966;16.992;2023-03-22T16:44:28;100822.58;;;14.58;70.00
57050;BME280;42935;50.966;16.992;2023-03-22T16:47:49;100828.68;;;14.46;71.85
57050;BME280;42935;50.966;16.992;2023-03-22T16:51:34;100821.89;;;14.29;72.47
57050;BME280;42935;50.966;16.992;2023-03-22T16:54:41;100834.34;;;14.26;72.06
57050;BME280;42935;50.966;16.992;2023-03-22T16:57:59;100838.24;;;14.15;72.79
57050;BME280;42935;50.966;16.992;2023-03-22T17:01:19;100834.49;;;13.97;73.91
57050;BME280;42935;50.966;16.992;2023-03-22T17:04:42;100821.99;;;13.72;75.78
57050;BME280;42935;50.966;16.992;2023-03-22T17:07:59;100826.30;;;13.76;74.99
57050;BME280;42935;50.966;16.992;2023-03-22T17:11:25;100842.22;;;13.43;78.25
57050;BME280;42935;50.966;16.992;2023-03-22T17:14:45;100807.66;;;12.84;84.22
57050;BME280;42935;50.966;16.992;2023-03-22T17:18:07;100831.45;;;13.07;83.48
57050;BME280;42935;50.966;16.992;2023-03-22T17:21:32;100833.95;;;12.86;84.77
57050;BME280;42935;50.966;16.992;2023-03-22T17:24:48;100838.59;;;12.61;87.73
57050;BME280;42935;50.966;16.992;2023-03-22T17:28:13;100831.45;;;12.48;88.10
57050;BME280;42935;50.966;16.992;2023-03-22T17:31:34;100829.68;;;12.29;91.41
57050;BME280;42935;50.966;16.992;2023-03-22T17:34:55;100821.38;;;12.07;91.68
57050;BME280;42935;50.966;16.992;2023-03-22T17:38:17;100833.23;;;12.02;91.45
57050;BME280;42935;50.966;16.992;2023-03-22T17:41:41;100814.19;;;11.81;90.40
57050;BME280;42935;50.966;16.992;2023-03-22T17:45:04;100827.02;;;12.06;87.98
57050;BME280;42935;50.966;16.992;2023-03-22T17:48:25;100824.12;;;11.88;88.25
57050;BME280;42935;50.966;16.992;2023-03-22T17:51:53;100835.25;;;11.91;87.79
57050;BME280;42935;50.966;16.992;2023-03-22T17:55:23;100830.34;;;11.61;89.78
57050;BME280;42935;50.966;16.992;2023-03-22T17:58:48;100833.73;;;11.69;89.09
57050;BME280;42935;50.966;16.992;2023-03-22T18:02:16;100829.47;;;11.53;88.79
57050;BME280;42935;50.966;16.992;2023-03-22T18:05:46;100842.81;;;11.46;88.79
57050;BME280;42935;50.966;16.992;2023-03-22T18:09:18;100848.05;;;11.43;89.06
57050;BME280;42935;50.966;16.992;2023-03-22T18:12:43;100838.61;;;11.34;90.13
57050;BME280;42935;50.966;16.992;2023-03-22T18:16:06;100818.93;;;11.02;91.70
57050;BME280;42935;50.966;16.992;2023-03-22T18:19:31;100842.48;;;11.10;92.29
57050;BME280;42935;50.966;16.992;2023-03-22T18:22:55;100830.34;;;10.88;93.82
57050;BME280;42935;50.966;16.992;2023-03-22T18:26:15;100839.83;;;10.85;94.25
57050;BME280;42935;50.966;16.992;2023-03-22T18:29:42;100828.38;;;10.75;95.12
57050;BME280;42935;50.966;16.992;2023-03-22T18:33:05;100838.46;;;10.79;95.64
57050;BME280;42935;50.966;16.992;2023-03-22T18:36:34;100824.07;;;10.58;96.35
57050;BME280;42935;50.966;16.992;2023-03-22T18:39:55;100841.80;;;10.69;96.82
57050;BME280;42935;50.966;16.992;2023-03-22T18:43:13;100830.48;;;10.30;99.98
57050;BME280;42935;50.966;16.992;2023-03-22T18:46:34;100838.09;;;10.28;99.85
57050;BME280;42935;50.966;16.992;2023-03-22T18:49:55;100838.40;;;10.20;100.00
57050;BME280;42935;50.966;16.992;2023-03-22T18:53:20;100829.82;;;9.74;100.00
57050;BME280;42935;50.966;16.992;2023-03-22T18:56:44;100842.06;;;9.87;100.00
57050;BME280;42935;50.966;16.992;2023-03-22T19:00:07;100819.66;;;9.62;100.00
57050;BME280;42935;50.966;16.992;2023-03-22T19:03:29;100844.08;;;9.67;100.00
57050;BME280;42935;50.966;16.992;2023-03-22T19:06:48;100833.51;;;9.48;100.00
57050;BME280;42935;50.966;16.992;2023-03-22T19:10:09;100806.86;;;9.07;100.00
57050;BME280;42935;50.966;16.992;2023-03-22T19:13:33;100848.54;;;9.31;100.00
57050;BME280;42935;50.966;16.992;2023-03-22T19:16:54;100838.54;;;9.11;100.00